Humidity-temperature Sensor

Selected Measurement Type: Air Temperature

 
Air Temperature [°C]     6 entries per hour
Showing data from 4/19/2015 (00:00:00 Z) to 4/18/2015 (00:00:00 Z)
Previous Next [ Day | 3-Days | 7-Days ]
First Last
Prev [ Day | 3-Days | 7-Days ] Next
First Last

Start Time:     :
End Time:     :     
Time (in GMT) :00 :50 :40 :30 :20 :10
Previous Next [ Day | 3-Days | 7-Days ]
First Last
Prev [ Day | 3-Days | 7-Days ] Next
First Last


123 => good data
MM => data is determined as missing
-- => data not received/configured
Back to Top Back to Top
4/19/2015 00:00 to 23:10 27.38 27.53 27.61 27.67 27.95 27.81
4/18/2015 23:00 to 22:10 27.79 28.02 27.77 27.78 27.77 27.76
4/18/2015 22:00 to 21:10 27.86 27.77 27.79 27.71 27.69 27.67
4/18/2015 21:00 to 20:10 27.68 27.45 27.52 27.49 27.43 27.10
4/18/2015 20:00 to 19:10 27.50 27.41 27.39 27.42 27.40 27.33
4/18/2015 19:00 to 18:10 27.46 27.41 27.46 27.55 27.58 27.56
4/18/2015 18:00 to 17:10 27.50 27.41 27.47 27.35 27.45 27.33
4/18/2015 17:00 to 16:10 27.32 27.32 27.22 27.43 27.46 27.37
4/18/2015 16:00 to 15:10 27.06 27.09 27.10 27.08 27.05 27.43
4/18/2015 15:00 to 14:10 27.42 27.17 27.10 26.85 26.72 26.61
4/18/2015 14:00 to 13:10 26.99 27.09 27.29 26.99 27.17 27.09
4/18/2015 13:00 to 12:10 26.87 26.83 26.71 26.69 26.66 26.69
4/18/2015 12:00 to 11:10 26.70 26.75 26.72 26.67 26.70 26.72
4/18/2015 11:00 to 10:10 26.62 26.78 26.62 26.58 26.28 26.11
4/18/2015 10:00 to 9:10 25.78 25.73 26.19 26.43 26.67 26.69
4/18/2015 09:00 to 8:10 26.65 26.65 26.58 26.68 26.69 26.64
4/18/2015 08:00 to 7:10 26.66 26.52 26.58 26.48 26.40 26.53
4/18/2015 07:00 to 6:10 26.41 26.34 26.38 26.24 26.25 26.38
4/18/2015 06:00 to 5:10 26.29 26.38 26.61 27.10 27.01 27.11
4/18/2015 05:00 to 4:10 27.09 27.12 27.13 27.19 27.11 27.18
4/18/2015 04:00 to 3:10 27.00 27.20 27.01 27.05 26.98 27.03
4/18/2015 03:00 to 2:10 26.98 27.01 27.04 27.06 27.09 27.03
4/18/2015 02:00 to 1:10 27.04 26.95 26.82 26.72 26.88 27.06
4/18/2015 01:00 to 0:10 26.96 27.09 26.81 27.10 27.10 27.33